Time;durP1;ratioP1;P1;durP2;ratioP2;P2;SDS_P1;SDS_P2;PMS_P1;PMS_P2;Temp;Humidity;BMP_temperature;BMP_pressure;BME280_temperature;BME280_humidity;BME280_pressure;Samples;Min_cycle;Max_cycle;Signal;HPM_P1;HPM_P2
2023/05/06 00:02:17;;;;;;;4.18;1.95;;;11.60;99.90;;;;;;4790669;29;20474;-87
2023/05/06 00:04:43;;;;;;;4.38;2.00;;;11.60;99.90;;;;;;4807124;29;20126;-84
2023/05/06 00:07:10;;;;;;;2.30;1.40;;;11.60;99.90;;;;;;4817847;29;20129;-88
2023/05/06 00:09:36;;;;;;;2.58;1.25;;;11.50;99.90;;;;;;4805878;29;20051;-87
2023/05/06 00:12:01;;;;;;;3.35;1.70;;;11.50;99.90;;;;;;4805979;29;20595;-88
2023/05/06 00:14:27;;;;;;;2.65;1.75;;;11.50;99.90;;;;;;4790719;29;20058;-86
2023/05/06 00:16:53;;;;;;;2.85;1.83;;;11.40;99.90;;;;;;4821552;29;20058;-85
2023/05/06 00:19:19;;;;;;;2.03;1.30;;;11.40;99.90;;;;;;4811841;29;20107;-86
2023/05/06 00:21:45;;;;;;;2.53;1.55;;;11.40;99.90;;;;;;4814944;29;20054;-82
2023/05/06 00:24:11;;;;;;;4.22;1.83;;;11.40;99.90;;;;;;4831239;29;20035;-84
2023/05/06 00:26:36;;;;;;;2.47;1.40;;;11.40;99.90;;;;;;4820957;29;20077;-89
2023/05/06 00:29:02;;;;;;;3.17;2.03;;;11.40;99.90;;;;;;4811219;29;20062;-82
2023/05/06 00:31:28;;;;;;;2.33;1.60;;;11.50;99.90;;;;;;4819158;29;20076;-84
2023/05/06 00:33:53;;;;;;;3.90;1.88;;;11.50;99.90;;;;;;4812484;29;20066;-82
2023/05/06 00:36:19;;;;;;;2.83;1.90;;;11.40;99.90;;;;;;4814592;29;20453;-91
2023/05/06 00:38:45;;;;;;;2.92;1.80;;;11.80;99.90;;;;;;4826983;29;20094;-84
2023/05/06 00:41:10;;;;;;;3.58;1.95;;;11.70;99.90;;;;;;4826230;29;20180;-89
2023/05/06 00:43:36;;;;;;;2.47;1.50;;;11.40;99.90;;;;;;4809713;29;20051;-86
2023/05/06 00:46:02;;;;;;;3.15;2.30;;;11.30;99.90;;;;;;4801668;29;20053;-87
2023/05/06 00:48:28;;;;;;;3.05;1.83;;;11.40;99.90;;;;;;4825297;29;20049;-93
2023/05/06 00:50:53;;;;;;;2.45;1.42;;;11.90;99.90;;;;;;4827155;29;20097;-89
2023/05/06 00:53:22;;;;;;;2.90;1.77;;;11.40;99.90;;;;;;4825596;29;20559;-86
2023/05/06 00:55:50;;;;;;;2.55;1.63;;;11.40;99.90;;;;;;4824794;29;20629;-86
2023/05/06 00:58:17;;;;;;;2.30;1.52;;;11.30;99.90;;;;;;4810150;29;20045;-88
2023/05/06 01:00:43;;;;;;;2.92;1.88;;;11.20;99.90;;;;;;4793073;29;20051;-87
2023/05/06 01:03:09;;;;;;;2.42;1.52;;;11.10;99.90;;;;;;4809188;29;20099;-88
2023/05/06 01:05:56;;;;;;;2.33;1.55;;;11.40;99.90;;;;;;4809461;29;20259;-84
2023/05/06 01:08:43;;;;;;;3.13;1.63;;;11.10;99.90;;;;;;4810735;29;20099;-85
2023/05/06 01:11:16;;;;;;;1.73;1.30;;;11.00;99.90;;;;;;4813819;29;20050;-90
2023/05/06 01:13:51;;;;;;;2.17;1.52;;;11.00;99.90;;;;;;4809341;29;20088;-85
2023/05/06 01:16:19;;;;;;;1.98;1.30;;;11.00;99.90;;;;;;4808966;29;20058;-87
2023/05/06 01:18:47;;;;;;;1.75;1.42;;;10.90;99.90;;;;;;4809731;29;20061;-91
2023/05/06 01:21:14;;;;;;;1.92;0.90;;;10.90;99.90;;;;;;4810261;29;20062;-89
2023/05/06 01:23:54;;;;;;;1.77;1.17;;;10.90;99.90;;;;;;4825413;29;20131;-89
2023/05/06 01:26:21;;;;;;;1.30;0.98;;;10.80;99.90;;;;;;4824924;29;20054;-84
2023/05/06 01:28:47;;;;;;;1.85;1.00;;;10.80;99.90;;;;;;4826163;29;20519;-87
2023/05/06 01:31:23;;;;;;;1.77;1.30;;;10.90;99.90;;;;;;4824346;29;20051;-86
2023/05/06 01:34:04;;;;;;;1.85;1.10;;;10.80;99.90;;;;;;4825916;29;20061;-84
2023/05/06 01:36:52;;;;;;;1.70;1.25;;;10.80;99.90;;;;;;4824564;29;20054;-85
2023/05/06 01:39:23;;;;;;;1.90;1.50;;;10.70;99.90;;;;;;4808070;29;20047;-87
2023/05/06 01:41:52;;;;;;;1.38;1.10;;;10.70;99.90;;;;;;4802460;29;20043;-84
2023/05/06 01:44:21;;;;;;;1.98;1.25;;;10.70;99.90;;;;;;4809024;29;20076;-89
2023/05/06 01:46:48;;;;;;;2.13;1.60;;;10.90;99.90;;;;;;4809080;29;20597;-86
2023/05/06 01:49:15;;;;;;;3.67;1.55;;;10.80;99.90;;;;;;4807796;29;20424;-85
2023/05/06 01:51:47;;;;;;;2.30;1.80;;;10.70;99.90;;;;;;4791818;29;20047;-84
2023/05/06 01:54:13;;;;;;;2.38;1.67;;;10.70;99.90;;;;;;4806344;29;20111;-85
2023/05/06 01:56:39;;;;;;;2.63;1.85;;;10.80;99.90;;;;;;4825513;29;20057;-87
2023/05/06 01:59:05;;;;;;;4.15;1.60;;;11.00;99.90;;;;;;4807355;29;20047;-85
2023/05/06 02:01:31;;;;;;;2.80;1.95;;;10.70;99.90;;;;;;4825617;29;20050;-83
2023/05/06 02:03:56;;;;;;;3.72;2.40;;;10.80;99.90;;;;;;4825214;29;20061;-82
2023/05/06 02:06:22;;;;;;;3.17;2.25;;;11.00;99.90;;;;;;4825222;29;20143;-85
2023/05/06 02:08:48;;;;;;;3.55;2.25;;;10.90;99.90;;;;;;4807426;29;20057;-84
2023/05/06 02:11:14;;;;;;;2.67;1.85;;;10.80;99.90;;;;;;4825509;29;20492;-83
2023/05/06 02:13:40;;;;;;;3.28;2.20;;;10.70;99.90;;;;;;4823786;29;20053;-83
2023/05/06 02:16:05;;;;;;;3.55;2.15;;;10.80;99.90;;;;;;4824784;29;20043;-82
2023/05/06 02:18:31;;;;;;;4.28;2.33;;;10.80;99.90;;;;;;4822427;29;20501;-84
2023/05/06 02:20:57;;;;;;;4.10;2.22;;;11.10;99.90;;;;;;4825344;29;20041;-84
2023/05/06 02:23:23;;;;;;;3.47;1.92;;;10.80;99.90;;;;;;4825373;29;20050;-83
2023/05/06 02:25:49;;;;;;;4.05;2.38;;;10.70;99.90;;;;;;4821642;29;20050;-81
2023/05/06 02:28:14;;;;;;;3.85;1.85;;;10.90;99.90;;;;;;4825170;29;20058;-82
2023/05/06 02:30:40;;;;;;;3.00;1.95;;;10.70;99.90;;;;;;4824677;29;20488;-82
2023/05/06 02:33:06;;;;;;;3.28;2.28;;;10.70;99.90;;;;;;4806420;29;20137;-82
2023/05/06 02:35:31;;;;;;;2.75;1.77;;;10.60;99.90;;;;;;4823789;29;20054;-83
2023/05/06 02:37:58;;;;;;;3.88;2.22;;;10.70;99.90;;;;;;4823265;29;20099;-82
2023/05/06 02:40:24;;;;;;;2.97;1.70;;;10.70;99.90;;;;;;4807904;29;20058;-84
2023/05/06 02:42:49;;;;;;;2.10;1.60;;;10.60;99.90;;;;;;4823600;29;20053;-83
2023/05/06 02:45:15;;;;;;;2.45;1.67;;;10.90;99.90;;;;;;4807781;29;20054;-82
2023/05/06 02:47:41;;;;;;;1.58;1.27;;;10.60;99.90;;;;;;4823335;29;20486;-82
2023/05/06 02:50:07;;;;;;;2.30;1.58;;;10.60;99.90;;;;;;4824705;29;20209;-81
2023/05/06 02:52:33;;;;;;;2.63;1.83;;;10.40;99.90;;;;;;4824787;29;20056;-81
2023/05/06 02:54:59;;;;;;;1.95;1.40;;;10.40;99.90;;;;;;4815868;29;20414;-81
2023/05/06 02:57:25;;;;;;;2.63;1.73;;;10.40;99.90;;;;;;4808186;29;20058;-81
2023/05/06 02:59:51;;;;;;;2.33;1.80;;;10.30;99.90;;;;;;4806409;29;20116;-81
2023/05/06 03:02:17;;;;;;;2.63;1.90;;;10.40;99.90;;;;;;4806282;29;20054;-81
2023/05/06 03:04:42;;;;;;;2.50;1.90;;;10.30;99.90;;;;;;4806423;29;20058;-81
2023/05/06 03:07:08;;;;;;;2.97;1.95;;;10.20;99.90;;;;;;4806449;29;20043;-81
2023/05/06 03:09:34;;;;;;;3.70;1.88;;;10.30;99.90;;;;;;4807171;29;20055;-82
2023/05/06 03:12:01;;;;;;;3.08;2.03;;;10.30;99.90;;;;;;4803675;29;20054;-82
2023/05/06 03:14:27;;;;;;;2.38;1.77;;;10.40;99.90;;;;;;4806009;29;20121;-82
2023/05/06 03:16:52;;;;;;;2.65;1.73;;;10.30;99.90;;;;;;4806061;29;20135;-81
2023/05/06 03:19:18;;;;;;;3.33;2.05;;;10.30;99.90;;;;;;4807132;29;20060;-81
2023/05/06 03:21:44;;;;;;;2.58;1.98;;;10.30;99.90;;;;;;4806266;29;20458;-82
2023/05/06 03:24:10;;;;;;;3.72;2.28;;;10.30;99.90;;;;;;4789994;29;20079;-81
2023/05/06 03:26:36;;;;;;;2.42;1.55;;;10.30;99.90;;;;;;4815830;29;20047;-83
2023/05/06 03:29:01;;;;;;;2.30;1.63;;;10.30;99.90;;;;;;4823598;29;20054;-81
2023/05/06 03:31:27;;;;;;;2.92;1.90;;;10.20;99.90;;;;;;4825085;29;20050;-84
2023/05/06 03:33:53;;;;;;;2.67;1.80;;;10.30;99.90;;;;;;4824460;29;20053;-82
2023/05/06 03:36:18;;;;;;;2.40;1.70;;;10.70;99.90;;;;;;4824247;29;20053;-81
2023/05/06 03:38:44;;;;;;;2.70;1.88;;;10.20;99.90;;;;;;4824018;29;20496;-82
2023/05/06 03:41:10;;;;;;;2.67;1.90;;;10.10;99.90;;;;;;4822674;29;20054;-83
2023/05/06 03:43:36;;;;;;;3.25;2.38;;;10.10;99.90;;;;;;4824046;29;20440;-81
2023/05/06 03:46:02;;;;;;;2.60;2.08;;;10.20;99.90;;;;;;4823367;29;20042;-82
2023/05/06 03:48:28;;;;;;;2.15;1.52;;;10.10;99.90;;;;;;4823993;29;20073;-82
2023/05/06 03:50:54;;;;;;;1.60;1.30;;;10.10;99.90;;;;;;4822626;29;20496;-81
2023/05/06 03:53:19;;;;;;;2.97;1.88;;;10.10;99.90;;;;;;4823140;29;20055;-83
2023/05/06 03:55:45;;;;;;;1.92;1.60;;;10.10;99.90;;;;;;4822255;29;20069;-83
2023/05/06 03:58:13;;;;;;;2.17;1.65;;;10.20;99.90;;;;;;4807379;29;20553;-82
2023/05/06 04:00:39;;;;;;;2.55;1.73;;;10.00;99.90;;;;;;4806721;29;20086;-84
2023/05/06 04:03:05;;;;;;;1.73;1.50;;;9.90;99.90;;;;;;4808906;29;20098;-86
2023/05/06 04:05:30;;;;;;;1.90;1.70;;;10.70;99.90;;;;;;4807797;29;20061;-83
2023/05/06 04:07:56;;;;;;;1.90;1.70;;;10.40;99.90;;;;;;4791225;29;20050;-82
2023/05/06 04:10:22;;;;;;;2.10;1.67;;;10.00;99.90;;;;;;4808096;29;20111;-84
2023/05/06 04:12:47;;;;;;;1.70;1.60;;;10.00;99.90;;;;;;4816513;29;20034;-82
2023/05/06 04:15:13;;;;;;;2.40;1.85;;;10.00;99.90;;;;;;4825320;29;20488;-84
2023/05/06 04:17:39;;;;;;;2.08;1.50;;;10.00;99.90;;;;;;4824474;29;20050;-82
2023/05/06 04:20:06;;;;;;;2.30;1.90;;;10.70;99.90;;;;;;4807605;29;20492;-83
2023/05/06 04:22:31;;;;;;;2.42;1.75;;;10.10;99.90;;;;;;4820977;29;20062;-88
2023/05/06 04:24:59;;;;;;;2.58;1.98;;;10.10;99.90;;;;;;4805418;29;20047;-84
2023/05/06 04:27:28;;;;;;;2.45;1.90;;;10.20;99.90;;;;;;4805387;29;20220;-83
2023/05/06 04:29:54;;;;;;;2.65;1.83;;;10.20;99.90;;;;;;4805099;29;20059;-84
2023/05/06 04:32:24;;;;;;;1.88;1.55;;;10.40;99.90;;;;;;4805478;29;20446;-84
2023/05/06 04:34:50;;;;;;;2.15;1.50;;;10.20;99.90;;;;;;4790504;29;20133;-85
2023/05/06 04:37:18;;;;;;;3.00;1.73;;;10.40;99.90;;;;;;4808476;29;20100;-84
2023/05/06 04:39:45;;;;;;;2.80;1.70;;;10.30;99.90;;;;;;4791974;29;20223;-88
2023/05/06 04:42:17;;;;;;;2.35;1.85;;;10.30;99.90;;;;;;4805476;29;20047;-88
2023/05/06 04:44:43;;;;;;;2.55;1.80;;;10.40;99.90;;;;;;4806577;29;20103;-83
2023/05/06 04:47:08;;;;;;;1.90;1.70;;;10.40;99.90;;;;;;4789288;29;20133;-87
2023/05/06 04:49:34;;;;;;;3.10;1.77;;;10.80;99.90;;;;;;4789558;29;20054;-84
2023/05/06 04:52:00;;;;;;;2.17;1.70;;;10.40;99.90;;;;;;4818971;29;20481;-85
2023/05/06 04:54:26;;;;;;;2.58;1.85;;;10.40;99.90;;;;;;4806084;29;20516;-86
2023/05/06 04:56:52;;;;;;;2.38;1.70;;;10.40;99.90;;;;;;4807401;29;20038;-84
2023/05/06 04:59:18;;;;;;;2.25;1.75;;;10.60;99.90;;;;;;4806915;29;20103;-83
2023/05/06 05:01:43;;;;;;;2.13;1.63;;;10.40;99.90;;;;;;4823076;29;20445;-85
2023/05/06 05:04:09;;;;;;;1.75;1.55;;;10.50;99.90;;;;;;4825385;29;20492;-83
2023/05/06 05:06:35;;;;;;;2.03;1.48;;;10.50;99.90;;;;;;4809052;29;20476;-82
2023/05/06 05:09:00;;;;;;;2.28;1.83;;;10.50;99.90;;;;;;4827143;29;20051;-82
2023/05/06 05:11:26;;;;;;;1.80;1.50;;;10.50;99.90;;;;;;4825796;29;20115;-82
2023/05/06 05:13:52;;;;;;;1.92;1.52;;;10.80;99.90;;;;;;4827337;29;20046;-88
2023/05/06 05:16:17;;;;;;;2.42;1.40;;;10.60;99.90;;;;;;4826506;29;20058;-85
2023/05/06 05:18:43;;;;;;;2.28;1.60;;;10.80;99.90;;;;;;4813171;29;20058;-82
2023/05/06 05:21:09;;;;;;;2.05;1.30;;;10.70;99.90;;;;;;4815127;29;20050;-83
2023/05/06 05:23:35;;;;;;;1.30;1.00;;;10.80;99.90;;;;;;4812247;29;20111;-88
2023/05/06 05:26:01;;;;;;;2.15;1.45;;;11.00;99.90;;;;;;4810037;29;20054;-88
2023/05/06 05:28:27;;;;;;;2.35;1.30;;;10.90;99.90;;;;;;4809521;29;20051;-86
2023/05/06 05:30:53;;;;;;;2.10;1.38;;;11.00;99.90;;;;;;4808623;29;20131;-87
2023/05/06 05:33:19;;;;;;;2.05;1.70;;;11.10;99.90;;;;;;4809343;29;20055;-85
2023/05/06 05:35:44;;;;;;;2.70;1.77;;;11.20;99.90;;;;;;4792340;29;20047;-86
2023/05/06 05:38:12;;;;;;;2.03;1.55;;;11.20;99.90;;;;;;4809149;29;20090;-84
2023/05/06 05:40:38;;;;;;;1.83;1.33;;;11.30;99.90;;;;;;4814644;29;20085;-88
2023/05/06 05:43:04;;;;;;;2.97;1.85;;;11.40;99.90;;;;;;4809786;29;20093;-87
2023/05/06 05:45:29;;;;;;;2.92;1.80;;;11.40;99.90;;;;;;4797774;29;20393;-85
2023/05/06 05:47:55;;;;;;;2.85;1.83;;;11.30;99.90;;;;;;4804779;29;20054;-84
2023/05/06 05:50:21;;;;;;;2.20;1.40;;;11.30;99.90;;;;;;4809650;29;20042;-86
2023/05/06 05:52:47;;;;;;;3.38;2.25;;;11.40;99.90;;;;;;4809776;29;20057;-83
2023/05/06 05:55:12;;;;;;;2.63;1.85;;;11.50;99.90;;;;;;4792995;29;20169;-86
2023/05/06 05:57:38;;;;;;;2.67;1.60;;;11.50;99.90;;;;;;4809423;29;20053;-83
2023/05/06 06:00:05;;;;;;;3.42;1.70;;;11.50;99.90;;;;;;4825607;29;20078;-87
2023/05/06 06:02:30;;;;;;;2.85;1.88;;;11.60;99.90;;;;;;4824764;29;20474;-84
2023/05/06 06:04:56;;;;;;;2.78;1.90;;;11.60;99.90;;;;;;4819054;29;20038;-81
2023/05/06 06:07:22;;;;;;;2.40;1.70;;;11.70;99.90;;;;;;4809889;29;20051;-82
2023/05/06 06:09:48;;;;;;;3.45;2.05;;;11.80;99.90;;;;;;4791164;29;20515;-82
2023/05/06 06:12:14;;;;;;;4.97;2.20;;;11.80;99.90;;;;;;4807261;29;20093;-81
2023/05/06 06:14:40;;;;;;;3.95;2.03;;;11.90;99.90;;;;;;4808113;29;20051;-82
2023/05/06 06:17:05;;;;;;;3.50;2.17;;;12.00;99.90;;;;;;4818652;29;20046;-83
2023/05/06 06:19:31;;;;;;;3.40;1.92;;;12.00;99.90;;;;;;4807129;29;20496;-83
2023/05/06 06:21:57;;;;;;;4.25;2.03;;;12.10;99.90;;;;;;4807084;29;20047;-81
2023/05/06 06:24:23;;;;;;;3.28;2.13;;;12.10;99.90;;;;;;4790794;29;20046;-83
2023/05/06 06:26:49;;;;;;;5.47;2.50;;;12.20;99.90;;;;;;4810521;29;20035;-81
2023/05/06 06:29:14;;;;;;;5.03;2.80;;;12.20;99.90;;;;;;4824224;29;20420;-82
2023/05/06 06:31:40;;;;;;;4.07;2.30;;;12.20;99.90;;;;;;4799523;29;20115;-82
2023/05/06 06:34:07;;;;;;;4.45;2.70;;;12.20;99.90;;;;;;4825256;29;20615;-82
2023/05/06 06:36:33;;;;;;;5.30;3.03;;;12.20;99.90;;;;;;4824575;29;20047;-83
2023/05/06 06:38:59;;;;;;;5.10;2.97;;;12.30;99.90;;;;;;4807233;29;20391;-83
2023/05/06 06:41:26;;;;;;;5.93;3.38;;;12.40;99.90;;;;;;4805637;29;20046;-81
2023/05/06 06:43:52;;;;;;;5.00;2.97;;;12.20;99.90;;;;;;4812655;29;20054;-82
2023/05/06 06:46:18;;;;;;;4.60;2.72;;;12.30;99.90;;;;;;4806845;29;20042;-83
2023/05/06 06:48:44;;;;;;;4.63;2.78;;;12.40;99.90;;;;;;4822887;29;20050;-82
2023/05/06 06:51:09;;;;;;;5.80;2.78;;;12.50;99.90;;;;;;4808037;29;20118;-84
2023/05/06 06:53:35;;;;;;;5.95;3.00;;;12.70;99.90;;;;;;4823772;29;20070;-84
2023/05/06 06:56:01;;;;;;;4.68;2.92;;;12.80;99.90;;;;;;4820460;29;20051;-83
2023/05/06 06:58:26;;;;;;;5.40;3.40;;;12.90;99.90;;;;;;4806134;29;20042;-82
2023/05/06 07:00:52;;;;;;;7.88;3.65;;;12.90;99.90;;;;;;4806523;29;20058;-86
2023/05/06 07:03:18;;;;;;;5.70;3.55;;;13.00;99.90;;;;;;4791049;29;20500;-83
2023/05/06 07:05:44;;;;;;;6.60;3.40;;;13.00;99.90;;;;;;4807288;29;20518;-84
2023/05/06 07:08:10;;;;;;;5.93;3.47;;;13.10;99.90;;;;;;4806483;29;20074;-82
2023/05/06 07:10:36;;;;;;;4.93;2.85;;;13.20;99.90;;;;;;4790264;29;20493;-82
2023/05/06 07:13:02;;;;;;;6.32;3.90;;;13.20;99.90;;;;;;4807335;29;20054;-83
2023/05/06 07:15:28;;;;;;;4.78;3.05;;;13.30;99.90;;;;;;4824545;29;20053;-82
2023/05/06 07:17:53;;;;;;;5.30;2.95;;;13.40;99.90;;;;;;4792430;29;20389;-81
2023/05/06 07:20:20;;;;;;;5.20;3.58;;;13.40;99.90;;;;;;4806170;29;20046;-83
2023/05/06 07:22:45;;;;;;;6.15;3.00;;;13.60;99.90;;;;;;4806038;29;20051;-83
2023/05/06 07:25:11;;;;;;;6.72;3.70;;;13.70;99.90;;;;;;4821582;29;21285;-82
2023/05/06 07:27:37;;;;;;;5.47;3.47;;;13.70;99.90;;;;;;4822516;29;20042;-84
2023/05/06 07:30:03;;;;;;;6.32;3.35;;;13.70;99.90;;;;;;4824202;29;20058;-83
2023/05/06 07:32:29;;;;;;;9.13;4.47;;;13.70;99.90;;;;;;4824329;29;20050;-81
2023/05/06 07:34:55;;;;;;;6.75;4.32;;;13.70;99.90;;;;;;4823626;29;20117;-82
2023/05/06 07:37:20;;;;;;;6.18;3.60;;;13.70;99.90;;;;;;4794327;29;20097;-84
2023/05/06 07:39:46;;;;;;;7.55;3.88;;;13.70;99.90;;;;;;4806682;29;20054;-83
2023/05/06 07:42:12;;;;;;;6.53;4.10;;;13.80;99.90;;;;;;4806372;29;20051;-80
2023/05/06 07:44:38;;;;;;;7.15;3.78;;;13.80;99.90;;;;;;4807229;29;20125;-83
2023/05/06 07:47:04;;;;;;;6.90;4.00;;;13.80;99.90;;;;;;4790768;29;20062;-83
2023/05/06 07:49:32;;;;;;;5.88;3.35;;;13.80;99.90;;;;;;4800889;29;20055;-82
2023/05/06 07:51:58;;;;;;;7.28;4.00;;;13.90;99.90;;;;;;4790754;29;20134;-81
2023/05/06 07:54:24;;;;;;;7.95;4.30;;;14.00;99.90;;;;;;4789918;29;20070;-83
2023/05/06 07:56:50;;;;;;;8.40;4.38;;;14.00;99.90;;;;;;4819135;29;20089;-85
2023/05/06 07:59:15;;;;;;;7.63;4.05;;;14.00;99.90;;;;;;4824569;29;20519;-85
2023/05/06 08:01:44;;;;;;;7.03;3.80;;;14.00;99.90;;;;;;4806299;29;20058;-83
2023/05/06 08:04:10;;;;;;;6.68;4.45;;;14.10;99.90;;;;;;4806842;29;20042;-84
2023/05/06 08:06:36;;;;;;;6.50;4.18;;;14.10;99.90;;;;;;4812445;29;20047;-83
2023/05/06 08:09:01;;;;;;;7.63;4.57;;;14.00;99.90;;;;;;4824533;29;20086;-83
2023/05/06 08:11:27;;;;;;;6.60;3.88;;;14.10;99.90;;;;;;4806974;29;20046;-83
2023/05/06 08:13:53;;;;;;;7.30;3.78;;;14.20;99.90;;;;;;4824024;29;20094;-81
2023/05/06 08:16:19;;;;;;;5.88;3.00;;;14.20;99.90;;;;;;4818438;29;20046;-87
2023/05/06 08:18:44;;;;;;;6.15;3.92;;;14.50;99.90;;;;;;4811719;29;20120;-87
2023/05/06 08:21:10;;;;;;;5.85;3.20;;;14.50;99.90;;;;;;4806327;29;20099;-87
2023/05/06 08:23:36;;;;;;;4.93;3.08;;;14.60;99.90;;;;;;4805297;29;20108;-86
2023/05/06 08:26:02;;;;;;;6.30;3.60;;;14.60;99.90;;;;;;4774052;29;20053;-87
2023/05/06 08:28:28;;;;;;;6.95;3.63;;;14.70;99.90;;;;;;4790208;29;20050;-85
2023/05/06 08:31:19;;;;;;;7.72;4.30;;;14.80;99.90;;;;;;4789206;29;20100;-92
2023/05/06 08:33:48;;;;;;;5.70;3.80;;;14.90;99.90;;;;;;4804950;29;20047;-87
2023/05/06 08:36:13;;;;;;;5.40;3.45;;;15.00;99.90;;;;;;4819490;29;20415;-86
2023/05/06 08:38:39;;;;;;;4.85;2.92;;;15.00;99.90;;;;;;4806793;29;20081;-84
2023/05/06 08:41:12;;;;;;;6.72;3.65;;;15.10;99.90;;;;;;4810348;29;20046;-86
2023/05/06 08:43:44;;;;;;;6.18;3.78;;;15.10;99.90;;;;;;4824778;29;20058;-85
2023/05/06 08:46:13;;;;;;;5.63;2.92;;;15.30;99.90;;;;;;4825113;29;20060;-86
2023/05/06 08:48:40;;;;;;;6.80;2.75;;;15.40;99.90;;;;;;4810228;29;20051;-88
2023/05/06 08:51:07;;;;;;;5.28;2.85;;;15.50;99.90;;;;;;4809003;29;20046;-85
2023/05/06 08:53:33;;;;;;;6.43;3.20;;;15.50;99.90;;;;;;4801830;29;20061;-85
2023/05/06 08:56:06;;;;;;;6.65;3.70;;;15.60;99.90;;;;;;4807458;29;20046;-87
2023/05/06 08:58:37;;;;;;;6.97;3.80;;;15.60;99.90;;;;;;4810213;29;20042;-88
2023/05/06 09:01:03;;;;;;;4.50;2.63;;;15.80;99.90;;;;;;4826415;29;20085;-87
2023/05/06 09:03:32;;;;;;;3.80;2.30;;;15.90;99.90;;;;;;4810281;29;20046;-88
2023/05/06 09:05:57;;;;;;;5.65;2.78;;;16.20;99.90;;;;;;4807940;29;20050;-86
2023/05/06 09:08:23;;;;;;;4.68;2.60;;;16.30;99.90;;;;;;4808575;29;20058;-87
2023/05/06 09:10:49;;;;;;;6.43;4.07;;;16.50;99.90;;;;;;4825694;29;20086;-87
2023/05/06 09:13:18;;;;;;;7.90;3.22;;;16.70;99.90;;;;;;4826426;29;20444;-87
2023/05/06 09:15:51;;;;;;;6.22;2.95;;;16.90;99.90;;;;;;4802217;29;20046;-87
2023/05/06 09:18:16;;;;;;;4.68;2.72;;;17.10;99.90;;;;;;4777655;29;20065;-87
2023/05/06 09:20:45;;;;;;;6.00;2.70;;;17.20;99.90;;;;;;4806561;29;20226;-90
2023/05/06 09:23:12;;;;;;;4.45;2.92;;;17.30;99.90;;;;;;4822906;29;20050;-86
2023/05/06 09:25:38;;;;;;;6.68;3.80;;;17.30;99.90;;;;;;4806822;29;20100;-84
2023/05/06 09:28:09;;;;;;;4.82;2.88;;;17.10;99.90;;;;;;4808187;29;20054;-87
2023/05/06 09:30:40;;;;;;;6.35;2.40;;;17.50;99.90;;;;;;4809318;29;20054;-85
2023/05/06 09:33:06;;;;;;;3.50;1.70;;;17.80;99.90;;;;;;4826314;29;20107;-88
2023/05/06 09:35:50;;;;;;;4.07;2.75;;;18.10;99.90;;;;;;4802291;29;20074;-89
2023/05/06 09:38:19;;;;;;;4.07;2.55;;;18.10;99.90;;;;;;4820750;29;20483;-87
2023/05/06 09:41:12;;;;;;;4.18;2.35;;;18.20;99.90;;;;;;4786640;29;20081;-88
2023/05/06 09:43:40;;;;;;;4.00;2.97;;;18.40;99.90;;;;;;4755462;30;20091;-88
2023/05/06 09:46:48;;;;;;;;;;;;;;;;;;;;;
2023/05/06 09:49:20;;;;;;;4.35;1.75;;;18.70;99.90;;;;;;4752380;30;20055;-87
2023/05/06 09:51:53;;;;;;;2.78;1.52;;;18.60;99.90;;;;;;4741050;30;20089;-89
2023/05/06 09:54:20;;;;;;;3.88;2.15;;;19.00;99.90;;;;;;4737915;30;20524;-86
2023/05/06 09:56:53;;;;;;;3.78;2.28;;;19.30;99.90;;;;;;4751898;30;20441;-89
2023/05/06 09:59:29;;;;;;;6.25;3.17;;;19.50;99.90;;;;;;4738640;30;20044;-89
2023/05/06 10:02:19;;;;;;;;;;;;;;;;;;;;;
2023/05/06 10:04:48;;;;;;;4.63;2.47;;;19.50;99.90;;;;;;4734520;30;20060;-88
2023/05/06 10:07:31;;;;;;;5.82;2.72;;;19.70;99.90;;;;;;4755621;30;20055;-89
2023/05/06 10:09:59;;;;;;;4.13;2.83;;;19.80;99.90;;;;;;4758925;30;20134;-86
2023/05/06 10:12:40;;;;;;;4.60;3.25;;;19.90;99.90;;;;;;4743995;30;20056;-88
2023/05/06 10:15:12;;;;;;;5.25;3.28;;;19.80;99.90;;;;;;4736429;30;20064;-89
2023/05/06 10:17:47;;;;;;;4.88;3.72;;;19.40;99.90;;;;;;4722561;30;20563;-88
2023/05/06 10:20:52;;;;;;;6.63;3.92;;;19.30;99.90;;;;;;4769998;29;20066;-89
2023/05/06 10:23:58;;;;;;;4.40;2.97;;;19.50;99.90;;;;;;4806889;29;20050;-90
2023/05/06 10:38:33;;;;;;;4.60;3.10;;;19.60;99.90;;;;;;4767107;30;20047;-90
2023/05/06 10:45:15;;;;;;;4.00;2.85;;;20.30;99.90;;;;;;4733284;30;20143;-90
2023/05/06 10:48:11;;;;;;;7.20;3.50;;;20.70;99.90;;;;;;4718151;30;20065;-89
2023/05/06 10:50:37;;;;;;;4.88;3.00;;;20.40;99.90;;;;;;4732359;30;20074;-88
2023/05/06 10:53:09;;;;;;;5.72;3.85;;;20.50;99.90;;;;;;4717544;30;20757;-89
2023/05/06 10:55:40;;;;;;;6.35;3.58;;;20.30;99.90;;;;;;4718582;30;20584;-89
2023/05/06 10:58:26;;;;;;;5.78;3.53;;;20.40;99.90;;;;;;4718175;30;20065;-90
2023/05/06 11:00:54;;;;;;;7.32;4.05;;;20.60;99.90;;;;;;4717914;30;20155;-87
2023/05/06 11:03:48;;;;;;;5.28;3.70;;;20.30;99.90;;;;;;4717714;30;20530;-88
2023/05/06 11:06:55;;;;;;;4.35;3.00;;;19.90;99.90;;;;;;4719417;30;20465;-88
2023/05/06 11:09:59;;;;;;;4.45;2.65;;;19.60;99.90;;;;;;4700512;30;20049;-88
2023/05/06 11:12:43;;;;;;;3.83;2.85;;;19.50;99.90;;;;;;4704445;30;20061;-87
2023/05/06 11:15:45;;;;;;;4.72;3.15;;;19.30;99.90;;;;;;4745252;30;20522;-88
2023/05/06 11:18:35;;;;;;;4.82;2.58;;;19.30;99.90;;;;;;4778662;29;20145;-88
2023/05/06 11:21:01;;;;;;;5.07;3.05;;;19.60;99.90;;;;;;4799752;29;20134;-89
2023/05/06 11:23:45;;;;;;;4.20;2.78;;;19.50;99.90;;;;;;4790005;29;20134;-87
2023/05/06 11:26:12;;;;;;;4.05;2.55;;;19.50;99.90;;;;;;4790648;29;20058;-87
2023/05/06 11:28:43;;;;;;;3.85;2.83;;;19.50;99.90;;;;;;4776378;29;20059;-87
2023/05/06 11:31:12;;;;;;;5.57;2.67;;;19.50;99.90;;;;;;4808975;29;20046;-87
2023/05/06 11:33:53;;;;;;;3.63;2.58;;;19.30;99.90;;;;;;4807329;29;20407;-86
2023/05/06 11:36:20;;;;;;;5.70;3.00;;;19.20;99.90;;;;;;4805787;29;20062;-86
2023/05/06 11:38:51;;;;;;;3.33;2.28;;;19.20;99.90;;;;;;4804503;29;20099;-83
2023/05/06 11:41:17;;;;;;;4.80;3.25;;;19.20;99.90;;;;;;4809120;29;20057;-83
2023/05/06 11:43:50;;;;;;;5.25;2.80;;;19.10;99.90;;;;;;4825600;29;20523;-84
2023/05/06 11:46:20;;;;;;;5.40;2.20;;;19.10;99.90;;;;;;4823725;29;20412;-83
2023/05/06 11:48:46;;;;;;;3.45;2.28;;;19.10;99.90;;;;;;4818809;29;20407;-81
2023/05/06 11:51:12;;;;;;;3.15;2.33;;;19.20;99.90;;;;;;4808089;29;20126;-82
2023/05/06 11:53:38;;;;;;;3.50;2.55;;;19.20;99.90;;;;;;4776554;29;20061;-81
2023/05/06 11:56:07;;;;;;;4.68;3.35;;;19.30;99.90;;;;;;4814415;29;20499;-81
2023/05/06 11:58:33;;;;;;;5.45;3.53;;;19.10;99.90;;;;;;4842804;29;20049;-84
2023/05/06 12:01:00;;;;;;;7.80;4.20;;;19.00;99.90;;;;;;4777554;29;20496;-83
2023/05/06 12:03:28;;;;;;;6.10;2.95;;;18.90;99.90;;;;;;4791990;29;20050;-84
2023/05/06 12:05:56;;;;;;;6.03;2.92;;;18.90;99.90;;;;;;4791992;29;20497;-84
2023/05/06 12:08:33;;;;;;;5.13;3.42;;;18.90;99.90;;;;;;4804327;29;20121;-86
2023/05/06 12:11:05;;;;;;;6.35;2.80;;;18.80;99.90;;;;;;4812323;29;20057;-81
2023/05/06 12:13:31;;;;;;;5.80;3.55;;;18.70;99.90;;;;;;4794775;29;20059;-81
2023/05/06 12:15:58;;;;;;;5.03;3.85;;;18.70;99.90;;;;;;4827890;29;20054;-82
2023/05/06 12:18:32;;;;;;;7.53;4.60;;;18.60;99.90;;;;;;4821005;29;20067;-82
2023/05/06 12:21:01;;;;;;;6.00;3.90;;;18.60;99.90;;;;;;4795307;29;20405;-84
2023/05/06 12:23:27;;;;;;;5.18;3.30;;;18.40;99.90;;;;;;4825413;29;20142;-83
2023/05/06 12:26:02;;;;;;;5.80;3.10;;;18.50;99.90;;;;;;4827048;29;20179;-83
2023/05/06 12:28:35;;;;;;;4.75;3.10;;;18.40;99.90;;;;;;4824619;29;20147;-83
2023/05/06 12:31:17;;;;;;;5.25;2.78;;;18.40;99.90;;;;;;4809108;29;20054;-86
2023/05/06 12:33:45;;;;;;;4.18;2.67;;;18.30;99.90;;;;;;4798593;29;20133;-82
2023/05/06 12:36:14;;;;;;;4.65;2.80;;;18.40;99.90;;;;;;4814359;29;20053;-82
2023/05/06 12:39:01;;;;;;;5.00;3.10;;;18.30;99.90;;;;;;4811158;29;20412;-80
2023/05/06 12:41:41;;;;;;;5.35;3.28;;;18.30;99.90;;;;;;4801186;29;20506;-81
2023/05/06 12:44:33;;;;;;;5.18;3.20;;;18.20;99.90;;;;;;4826936;29;20511;-80
2023/05/06 12:47:17;;;;;;;4.03;2.63;;;18.20;99.90;;;;;;4809127;29;20050;-81
2023/05/06 12:49:47;;;;;;;3.78;2.60;;;18.10;99.90;;;;;;4810036;29;20059;-82
2023/05/06 12:52:13;;;;;;;4.45;2.70;;;18.00;99.90;;;;;;4825445;29;20085;-90
2023/05/06 12:54:39;;;;;;;4.43;2.50;;;17.80;99.90;;;;;;4826163;29;20098;-89
2023/05/06 12:57:05;;;;;;;4.43;2.58;;;17.60;99.90;;;;;;4811193;29;20426;-87
2023/05/06 12:59:31;;;;;;;4.65;2.55;;;17.50;99.90;;;;;;4828223;29;20098;-82
2023/05/06 13:01:58;;;;;;;4.45;2.65;;;17.40;99.90;;;;;;4807298;29;20058;-87
2023/05/06 13:04:24;;;;;;;6.68;3.42;;;17.30;99.90;;;;;;4824935;29;20043;-84
2023/05/06 13:06:50;;;;;;;5.97;3.70;;;17.20;99.90;;;;;;4810865;29;20140;-86
2023/05/06 13:09:16;;;;;;;5.85;3.83;;;17.10;99.90;;;;;;4827663;29;20078;-85
2023/05/06 13:11:42;;;;;;;6.82;3.78;;;17.10;99.90;;;;;;4827198;29;20053;-82
2023/05/06 13:14:09;;;;;;;6.72;2.83;;;17.00;99.90;;;;;;4808209;29;20058;-87